sensor_id;sensor_type;location;lat;lon;timestamp;P1;durP1;ratioP1;P2;durP2;ratioP2
12425;SDS011;6277;49.824;9.562;2023-08-30T00:00:04;1.20;;;0.90;;
12425;SDS011;6277;49.824;9.562;2023-08-30T00:02:30;1.13;;;0.93;;
12425;SDS011;6277;49.824;9.562;2023-08-30T00:04:59;1.30;;;0.90;;
12425;SDS011;6277;49.824;9.562;2023-08-30T00:07:25;0.95;;;0.77;;
12425;SDS011;6277;49.824;9.562;2023-08-30T00:09:51;0.75;;;0.75;;
12425;SDS011;6277;49.824;9.562;2023-08-30T00:12:17;0.73;;;0.70;;
12425;SDS011;6277;49.824;9.562;2023-08-30T00:14:42;1.17;;;0.90;;
12425;SDS011;6277;49.824;9.562;2023-08-30T00:17:08;0.82;;;0.70;;
12425;SDS011;6277;49.824;9.562;2023-08-30T00:19:34;1.55;;;0.90;;
12425;SDS011;6277;49.824;9.562;2023-08-30T00:22:00;0.68;;;0.68;;
12425;SDS011;6277;49.824;9.562;2023-08-30T00:24:25;1.00;;;0.90;;
12425;SDS011;6277;49.824;9.562;2023-08-30T00:26:51;0.85;;;0.85;;
12425;SDS011;6277;49.824;9.562;2023-08-30T00:29:16;0.95;;;0.90;;
12425;SDS011;6277;49.824;9.562;2023-08-30T00:31:42;0.80;;;0.80;;
12425;SDS011;6277;49.824;9.562;2023-08-30T00:34:07;1.10;;;0.65;;
12425;SDS011;6277;49.824;9.562;2023-08-30T00:36:33;0.82;;;0.80;;
12425;SDS011;6277;49.824;9.562;2023-08-30T00:38:58;0.75;;;0.73;;
12425;SDS011;6277;49.824;9.562;2023-08-30T00:41:24;0.85;;;0.65;;
12425;SDS011;6277;49.824;9.562;2023-08-30T00:43:49;1.25;;;0.65;;
12425;SDS011;6277;49.824;9.562;2023-08-30T00:46:15;1.05;;;0.75;;
12425;SDS011;6277;49.824;9.562;2023-08-30T00:48:41;1.13;;;0.88;;
12425;SDS011;6277;49.824;9.562;2023-08-30T00:51:07;2.05;;;0.88;;
12425;SDS011;6277;49.824;9.562;2023-08-30T00:53:33;1.30;;;0.75;;
12425;SDS011;6277;49.824;9.562;2023-08-30T00:55:59;0.70;;;0.70;;
12425;SDS011;6277;49.824;9.562;2023-08-30T00:58:24;0.80;;;0.80;;
12425;SDS011;6277;49.824;9.562;2023-08-30T01:00:51;1.42;;;1.08;;
12425;SDS011;6277;49.824;9.562;2023-08-30T01:03:18;1.10;;;0.93;;
12425;SDS011;6277;49.824;9.562;2023-08-30T01:05:45;1.60;;;1.40;;
12425;SDS011;6277;49.824;9.562;2023-08-30T01:08:10;3.78;;;1.40;;
12425;SDS011;6277;49.824;9.562;2023-08-30T01:13:30;1.33;;;1.20;;
12425;SDS011;6277;49.824;9.562;2023-08-30T01:15:58;13.13;;;3.25;;
12425;SDS011;6277;49.824;9.562;2023-08-30T01:18:26;10.00;;;2.63;;
12425;SDS011;6277;49.824;9.562;2023-08-30T01:20:54;5.90;;;2.95;;
12425;SDS011;6277;49.824;9.562;2023-08-30T01:26:06;4.90;;;1.88;;
12425;SDS011;6277;49.824;9.562;2023-08-30T01:28:57;2.95;;;2.03;;
12425;SDS011;6277;49.824;9.562;2023-08-30T01:31:26;11.10;;;2.72;;
12425;SDS011;6277;49.824;9.562;2023-08-30T01:33:54;5.28;;;2.90;;
12425;SDS011;6277;49.824;9.562;2023-08-30T01:36:22;5.03;;;2.47;;
12425;SDS011;6277;49.824;9.562;2023-08-30T01:38:47;3.40;;;2.63;;
12425;SDS011;6277;49.824;9.562;2023-08-30T01:41:14;3.90;;;2.70;;
12425;SDS011;6277;49.824;9.562;2023-08-30T01:43:40;3.08;;;2.20;;
12425;SDS011;6277;49.824;9.562;2023-08-30T01:46:07;2.58;;;2.03;;
12425;SDS011;6277;49.824;9.562;2023-08-30T01:48:34;2.30;;;1.70;;
12425;SDS011;6277;49.824;9.562;2023-08-30T01:51:01;2.17;;;1.90;;
12425;SDS011;6277;49.824;9.562;2023-08-30T01:53:27;3.05;;;1.52;;
12425;SDS011;6277;49.824;9.562;2023-08-30T01:55:53;1.70;;;1.60;;
12425;SDS011;6277;49.824;9.562;2023-08-30T01:58:19;2.08;;;1.75;;
12425;SDS011;6277;49.824;9.562;2023-08-30T02:00:45;1.92;;;1.70;;
12425;SDS011;6277;49.824;9.562;2023-08-30T02:03:11;2.28;;;1.63;;
12425;SDS011;6277;49.824;9.562;2023-08-30T02:06:13;1.40;;;1.30;;
12425;SDS011;6277;49.824;9.562;2023-08-30T02:08:46;1.40;;;1.30;;
12425;SDS011;6277;49.824;9.562;2023-08-30T02:11:23;1.80;;;1.33;;
12425;SDS011;6277;49.824;9.562;2023-08-30T02:13:53;1.60;;;1.50;;
12425;SDS011;6277;49.824;9.562;2023-08-30T02:16:22;2.15;;;1.77;;
12425;SDS011;6277;49.824;9.562;2023-08-30T02:18:48;8.35;;;2.00;;
12425;SDS011;6277;49.824;9.562;2023-08-30T02:21:15;4.93;;;2.10;;
12425;SDS011;6277;49.824;9.562;2023-08-30T02:23:40;9.27;;;2.22;;
12425;SDS011;6277;49.824;9.562;2023-08-30T02:26:06;4.47;;;2.20;;
12425;SDS011;6277;49.824;9.562;2023-08-30T02:28:31;12.35;;;2.72;;
12425;SDS011;6277;49.824;9.562;2023-08-30T02:30:57;3.15;;;1.90;;
12425;SDS011;6277;49.824;9.562;2023-08-30T02:33:23;3.88;;;1.98;;
12425;SDS011;6277;49.824;9.562;2023-08-30T02:35:48;8.20;;;2.33;;
12425;SDS011;6277;49.824;9.562;2023-08-30T02:38:14;10.73;;;1.85;;
12425;SDS011;6277;49.824;9.562;2023-08-30T02:40:40;10.27;;;3.22;;
12425;SDS011;6277;49.824;9.562;2023-08-30T02:43:05;7.75;;;2.75;;
12425;SDS011;6277;49.824;9.562;2023-08-30T02:45:31;8.93;;;2.53;;
12425;SDS011;6277;49.824;9.562;2023-08-30T02:47:56;3.47;;;1.88;;
12425;SDS011;6277;49.824;9.562;2023-08-30T02:50:22;3.45;;;2.30;;
12425;SDS011;6277;49.824;9.562;2023-08-30T02:52:48;2.45;;;2.22;;
12425;SDS011;6277;49.824;9.562;2023-08-30T02:55:14;2.30;;;2.10;;
12425;SDS011;6277;49.824;9.562;2023-08-30T02:57:39;2.75;;;2.30;;
12425;SDS011;6277;49.824;9.562;2023-08-30T03:00:05;2.55;;;2.20;;
12425;SDS011;6277;49.824;9.562;2023-08-30T03:02:32;3.40;;;2.13;;
12425;SDS011;6277;49.824;9.562;2023-08-30T03:04:58;2.50;;;2.20;;
12425;SDS011;6277;49.824;9.562;2023-08-30T03:07:24;2.17;;;1.85;;
12425;SDS011;6277;49.824;9.562;2023-08-30T03:09:53;2.45;;;2.25;;
12425;SDS011;6277;49.824;9.562;2023-08-30T03:12:19;2.00;;;1.80;;
12425;SDS011;6277;49.824;9.562;2023-08-30T03:14:45;1.90;;;1.70;;
12425;SDS011;6277;49.824;9.562;2023-08-30T03:17:11;3.35;;;1.98;;
12425;SDS011;6277;49.824;9.562;2023-08-30T03:19:37;1.88;;;1.67;;
12425;SDS011;6277;49.824;9.562;2023-08-30T03:22:02;1.73;;;1.33;;
12425;SDS011;6277;49.824;9.562;2023-08-30T03:24:28;1.75;;;1.63;;
12425;SDS011;6277;49.824;9.562;2023-08-30T03:26:53;1.48;;;1.38;;
12425;SDS011;6277;49.824;9.562;2023-08-30T03:29:19;2.10;;;1.38;;
12425;SDS011;6277;49.824;9.562;2023-08-30T03:31:45;1.52;;;1.38;;
12425;SDS011;6277;49.824;9.562;2023-08-30T03:34:10;1.92;;;1.70;;
12425;SDS011;6277;49.824;9.562;2023-08-30T03:36:36;2.00;;;1.70;;
12425;SDS011;6277;49.824;9.562;2023-08-30T03:39:02;3.67;;;2.25;;
12425;SDS011;6277;49.824;9.562;2023-08-30T03:41:28;2.90;;;2.60;;
12425;SDS011;6277;49.824;9.562;2023-08-30T03:43:54;3.67;;;2.53;;
12425;SDS011;6277;49.824;9.562;2023-08-30T03:46:19;2.17;;;1.80;;
12425;SDS011;6277;49.824;9.562;2023-08-30T03:48:45;2.22;;;1.85;;
12425;SDS011;6277;49.824;9.562;2023-08-30T03:51:10;2.45;;;2.25;;
12425;SDS011;6277;49.824;9.562;2023-08-30T03:53:36;1.83;;;1.73;;
12425;SDS011;6277;49.824;9.562;2023-08-30T03:56:01;2.58;;;2.00;;
12425;SDS011;6277;49.824;9.562;2023-08-30T03:58:28;2.20;;;1.75;;
12425;SDS011;6277;49.824;9.562;2023-08-30T04:00:54;2.40;;;1.75;;
12425;SDS011;6277;49.824;9.562;2023-08-30T04:03:19;2.08;;;1.65;;
12425;SDS011;6277;49.824;9.562;2023-08-30T04:05:45;1.88;;;1.70;;
12425;SDS011;6277;49.824;9.562;2023-08-30T04:08:11;2.03;;;1.60;;
12425;SDS011;6277;49.824;9.562;2023-08-30T04:10:40;1.58;;;1.48;;
12425;SDS011;6277;49.824;9.562;2023-08-30T04:13:07;1.50;;;1.40;;
12425;SDS011;6277;49.824;9.562;2023-08-30T04:15:36;2.33;;;1.35;;
12425;SDS011;6277;49.824;9.562;2023-08-30T04:18:04;3.05;;;1.70;;
12425;SDS011;6277;49.824;9.562;2023-08-30T04:20:30;3.92;;;1.63;;
12425;SDS011;6277;49.824;9.562;2023-08-30T04:22:57;2.55;;;1.60;;
12425;SDS011;6277;49.824;9.562;2023-08-30T04:25:23;2.22;;;1.77;;
12425;SDS011;6277;49.824;9.562;2023-08-30T04:27:49;2.10;;;1.60;;
12425;SDS011;6277;49.824;9.562;2023-08-30T04:30:15;1.83;;;1.60;;
12425;SDS011;6277;49.824;9.562;2023-08-30T04:32:41;2.80;;;2.03;;
12425;SDS011;6277;49.824;9.562;2023-08-30T04:35:07;2.05;;;1.80;;
12425;SDS011;6277;49.824;9.562;2023-08-30T04:37:33;1.77;;;1.48;;
12425;SDS011;6277;49.824;9.562;2023-08-30T04:39:59;1.85;;;1.52;;
12425;SDS011;6277;49.824;9.562;2023-08-30T04:42:24;2.33;;;1.48;;
12425;SDS011;6277;49.824;9.562;2023-08-30T04:44:50;1.85;;;1.52;;
12425;SDS011;6277;49.824;9.562;2023-08-30T04:47:17;2.20;;;1.70;;
12425;SDS011;6277;49.824;9.562;2023-08-30T04:49:42;2.15;;;1.75;;
12425;SDS011;6277;49.824;9.562;2023-08-30T04:52:08;2.45;;;2.08;;
12425;SDS011;6277;49.824;9.562;2023-08-30T04:54:34;3.35;;;2.70;;
12425;SDS011;6277;49.824;9.562;2023-08-30T04:56:59;4.50;;;3.38;;
12425;SDS011;6277;49.824;9.562;2023-08-30T04:59:25;3.38;;;3.03;;
12425;SDS011;6277;49.824;9.562;2023-08-30T05:01:50;4.10;;;3.33;;
12425;SDS011;6277;49.824;9.562;2023-08-30T05:04:17;3.42;;;3.13;;
12425;SDS011;6277;49.824;9.562;2023-08-30T05:06:42;3.42;;;3.00;;
12425;SDS011;6277;49.824;9.562;2023-08-30T05:09:08;2.70;;;2.50;;
12425;SDS011;6277;49.824;9.562;2023-08-30T05:11:34;3.47;;;3.08;;
12425;SDS011;6277;49.824;9.562;2023-08-30T05:14:00;3.17;;;2.85;;
12425;SDS011;6277;49.824;9.562;2023-08-30T05:16:25;3.60;;;3.08;;
12425;SDS011;6277;49.824;9.562;2023-08-30T05:18:51;7.07;;;3.28;;
12425;SDS011;6277;49.824;9.562;2023-08-30T05:21:17;6.78;;;3.53;;
12425;SDS011;6277;49.824;9.562;2023-08-30T05:23:42;8.30;;;4.05;;
12425;SDS011;6277;49.824;9.562;2023-08-30T05:26:09;6.75;;;3.50;;
12425;SDS011;6277;49.824;9.562;2023-08-30T05:28:37;7.03;;;4.05;;
12425;SDS011;6277;49.824;9.562;2023-08-30T05:31:03;6.32;;;3.75;;
12425;SDS011;6277;49.824;9.562;2023-08-30T05:33:29;18.00;;;4.20;;
12425;SDS011;6277;49.824;9.562;2023-08-30T05:35:55;11.90;;;3.70;;
12425;SDS011;6277;49.824;9.562;2023-08-30T05:38:20;7.18;;;3.47;;
12425;SDS011;6277;49.824;9.562;2023-08-30T05:40:46;10.05;;;3.72;;
12425;SDS011;6277;49.824;9.562;2023-08-30T05:43:12;7.75;;;3.58;;
12425;SDS011;6277;49.824;9.562;2023-08-30T05:45:37;4.47;;;3.65;;
12425;SDS011;6277;49.824;9.562;2023-08-30T05:48:03;5.32;;;3.33;;
12425;SDS011;6277;49.824;9.562;2023-08-30T05:50:30;4.70;;;3.72;;
12425;SDS011;6277;49.824;9.562;2023-08-30T05:52:55;5.72;;;3.70;;
12425;SDS011;6277;49.824;9.562;2023-08-30T05:55:21;4.35;;;3.67;;
12425;SDS011;6277;49.824;9.562;2023-08-30T05:57:46;3.70;;;3.13;;
12425;SDS011;6277;49.824;9.562;2023-08-30T06:00:12;5.15;;;3.83;;
12425;SDS011;6277;49.824;9.562;2023-08-30T06:02:38;4.45;;;3.90;;
12425;SDS011;6277;49.824;9.562;2023-08-30T06:05:05;4.38;;;3.47;;
12425;SDS011;6277;49.824;9.562;2023-08-30T06:07:31;4.43;;;3.70;;
12425;SDS011;6277;49.824;9.562;2023-08-30T06:09:56;4.10;;;3.70;;
12425;SDS011;6277;49.824;9.562;2023-08-30T06:12:22;5.38;;;4.18;;
12425;SDS011;6277;49.824;9.562;2023-08-30T06:14:47;4.57;;;3.47;;
12425;SDS011;6277;49.824;9.562;2023-08-30T06:17:17;3.67;;;3.35;;
12425;SDS011;6277;49.824;9.562;2023-08-30T06:19:44;3.05;;;2.75;;
12425;SDS011;6277;49.824;9.562;2023-08-30T06:22:10;3.33;;;3.03;;
12425;SDS011;6277;49.824;9.562;2023-08-30T06:24:36;3.25;;;2.95;;
12425;SDS011;6277;49.824;9.562;2023-08-30T06:27:01;3.00;;;2.63;;
12425;SDS011;6277;49.824;9.562;2023-08-30T06:29:27;5.05;;;3.03;;
12425;SDS011;6277;49.824;9.562;2023-08-30T06:31:52;2.47;;;2.20;;
12425;SDS011;6277;49.824;9.562;2023-08-30T06:34:18;2.65;;;2.45;;
12425;SDS011;6277;49.824;9.562;2023-08-30T06:36:43;3.58;;;3.00;;
12425;SDS011;6277;49.824;9.562;2023-08-30T06:39:09;3.40;;;3.10;;
12425;SDS011;6277;49.824;9.562;2023-08-30T06:41:35;3.58;;;3.05;;
12425;SDS011;6277;49.824;9.562;2023-08-30T06:44:00;3.65;;;3.28;;
12425;SDS011;6277;49.824;9.562;2023-08-30T06:46:26;3.70;;;3.40;;
12425;SDS011;6277;49.824;9.562;2023-08-30T06:48:51;4.85;;;3.90;;
12425;SDS011;6277;49.824;9.562;2023-08-30T06:51:17;4.70;;;3.85;;
12425;SDS011;6277;49.824;9.562;2023-08-30T06:53:42;3.58;;;3.28;;
12425;SDS011;6277;49.824;9.562;2023-08-30T06:56:08;3.25;;;2.95;;
12425;SDS011;6277;49.824;9.562;2023-08-30T06:58:33;3.35;;;3.05;;
12425;SDS011;6277;49.824;9.562;2023-08-30T07:00:59;3.38;;;3.08;;
12425;SDS011;6277;49.824;9.562;2023-08-30T07:03:25;3.13;;;2.83;;
12425;SDS011;6277;49.824;9.562;2023-08-30T07:05:51;3.35;;;3.05;;
12425;SDS011;6277;49.824;9.562;2023-08-30T07:08:17;3.58;;;2.97;;
12425;SDS011;6277;49.824;9.562;2023-08-30T07:10:42;3.08;;;2.78;;
12425;SDS011;6277;49.824;9.562;2023-08-30T07:13:08;3.40;;;3.10;;
12425;SDS011;6277;49.824;9.562;2023-08-30T07:15:38;2.85;;;2.40;;
12425;SDS011;6277;49.824;9.562;2023-08-30T07:18:04;3.03;;;2.65;;
12425;SDS011;6277;49.824;9.562;2023-08-30T07:20:30;2.83;;;2.55;;
12425;SDS011;6277;49.824;9.562;2023-08-30T07:22:56;3.97;;;2.55;;
12425;SDS011;6277;49.824;9.562;2023-08-30T07:25:22;2.92;;;2.63;;
12425;SDS011;6277;49.824;9.562;2023-08-30T07:27:47;2.47;;;2.28;;
12425;SDS011;6277;49.824;9.562;2023-08-30T07:30:13;4.65;;;2.88;;
12425;SDS011;6277;49.824;9.562;2023-08-30T07:32:39;2.60;;;2.40;;
12425;SDS011;6277;49.824;9.562;2023-08-30T07:35:05;2.78;;;2.33;;
12425;SDS011;6277;49.824;9.562;2023-08-30T07:37:31;2.40;;;2.20;;
12425;SDS011;6277;49.824;9.562;2023-08-30T07:39:56;2.95;;;2.65;;
12425;SDS011;6277;49.824;9.562;2023-08-30T07:42:22;2.33;;;2.13;;
12425;SDS011;6277;49.824;9.562;2023-08-30T07:44:48;3.78;;;2.47;;
12425;SDS011;6277;49.824;9.562;2023-08-30T07:47:13;1.60;;;1.48;;
12425;SDS011;6277;49.824;9.562;2023-08-30T07:49:39;2.70;;;1.80;;
12425;SDS011;6277;49.824;9.562;2023-08-30T07:52:04;3.78;;;2.13;;
12425;SDS011;6277;49.824;9.562;2023-08-30T07:54:30;2.90;;;2.50;;
12425;SDS011;6277;49.824;9.562;2023-08-30T07:56:56;1.90;;;1.70;;
12425;SDS011;6277;49.824;9.562;2023-08-30T07:59:22;2.35;;;2.15;;
12425;SDS011;6277;49.824;9.562;2023-08-30T08:01:47;2.50;;;2.30;;
12425;SDS011;6277;49.824;9.562;2023-08-30T08:04:13;2.90;;;2.60;;
12425;SDS011;6277;49.824;9.562;2023-08-30T08:06:38;3.03;;;2.72;;
12425;SDS011;6277;49.824;9.562;2023-08-30T08:09:04;2.20;;;1.95;;
12425;SDS011;6277;49.824;9.562;2023-08-30T08:11:31;3.88;;;2.72;;
12425;SDS011;6277;49.824;9.562;2023-08-30T08:13:57;2.50;;;2.25;;
12425;SDS011;6277;49.824;9.562;2023-08-30T08:16:22;3.03;;;2.22;;
12425;SDS011;6277;49.824;9.562;2023-08-30T08:18:48;2.90;;;2.70;;
12425;SDS011;6277;49.824;9.562;2023-08-30T08:21:14;2.70;;;2.50;;
12425;SDS011;6277;49.824;9.562;2023-08-30T08:23:39;2.50;;;2.30;;
12425;SDS011;6277;49.824;9.562;2023-08-30T08:26:05;2.65;;;2.45;;
12425;SDS011;6277;49.824;9.562;2023-08-30T08:28:32;3.20;;;2.70;;
12425;SDS011;6277;49.824;9.562;2023-08-30T08:30:58;3.85;;;2.97;;
12425;SDS011;6277;49.824;9.562;2023-08-30T08:33:23;3.65;;;3.35;;
12425;SDS011;6277;49.824;9.562;2023-08-30T08:35:49;3.95;;;3.50;;
12425;SDS011;6277;49.824;9.562;2023-08-30T08:38:15;4.53;;;3.38;;
12425;SDS011;6277;49.824;9.562;2023-08-30T08:40:41;3.92;;;3.58;;
12425;SDS011;6277;49.824;9.562;2023-08-30T08:43:06;2.97;;;2.78;;
12425;SDS011;6277;49.824;9.562;2023-08-30T08:45:34;3.80;;;3.50;;
12425;SDS011;6277;49.824;9.562;2023-08-30T08:48:04;3.25;;;2.95;;
12425;SDS011;6277;49.824;9.562;2023-08-30T08:50:30;3.20;;;2.90;;
12425;SDS011;6277;49.824;9.562;2023-08-30T08:52:59;3.67;;;3.30;;
12425;SDS011;6277;49.824;9.562;2023-08-30T08:55:26;3.17;;;2.88;;
12425;SDS011;6277;49.824;9.562;2023-08-30T08:57:55;3.30;;;3.00;;
12425;SDS011;6277;49.824;9.562;2023-08-30T09:00:22;3.72;;;3.28;;
12425;SDS011;6277;49.824;9.562;2023-08-30T09:02:48;3.13;;;2.83;;
12425;SDS011;6277;49.824;9.562;2023-08-30T09:05:16;2.83;;;2.63;;
12425;SDS011;6277;49.824;9.562;2023-08-30T09:07:43;22.48;;;4.95;;
12425;SDS011;6277;49.824;9.562;2023-08-30T09:10:10;4.15;;;3.25;;
12425;SDS011;6277;49.824;9.562;2023-08-30T09:12:36;3.42;;;3.13;;
12425;SDS011;6277;49.824;9.562;2023-08-30T09:15:01;3.70;;;3.40;;
12425;SDS011;6277;49.824;9.562;2023-08-30T09:17:38;3.47;;;3.17;;
12425;SDS011;6277;49.824;9.562;2023-08-30T09:22:39;3.05;;;2.75;;
12425;SDS011;6277;49.824;9.562;2023-08-30T09:25:06;3.97;;;2.60;;
12425;SDS011;6277;49.824;9.562;2023-08-30T09:27:36;3.67;;;3.38;;
12425;SDS011;6277;49.824;9.562;2023-08-30T09:30:06;4.07;;;3.72;;
12425;SDS011;6277;49.824;9.562;2023-08-30T09:32:38;3.92;;;3.60;;
12425;SDS011;6277;49.824;9.562;2023-08-30T09:35:05;4.00;;;3.60;;
12425;SDS011;6277;49.824;9.562;2023-08-30T09:37:31;4.07;;;3.50;;
12425;SDS011;6277;49.824;9.562;2023-08-30T09:39:57;3.50;;;3.20;;
12425;SDS011;6277;49.824;9.562;2023-08-30T09:42:22;3.75;;;3.35;;
12425;SDS011;6277;49.824;9.562;2023-08-30T09:44:48;2.50;;;2.30;;
12425;SDS011;6277;49.824;9.562;2023-08-30T09:47:14;4.65;;;3.58;;
12425;SDS011;6277;49.824;9.562;2023-08-30T09:49:42;4.80;;;3.60;;
12425;SDS011;6277;49.824;9.562;2023-08-30T09:52:10;3.35;;;3.00;;
12425;SDS011;6277;49.824;9.562;2023-08-30T09:54:39;2.92;;;2.72;;
12425;SDS011;6277;49.824;9.562;2023-08-30T09:57:08;3.58;;;3.25;;
12425;SDS011;6277;49.824;9.562;2023-08-30T09:59:34;3.25;;;2.95;;
12425;SDS011;6277;49.824;9.562;2023-08-30T10:02:01;3.70;;;3.40;;
12425;SDS011;6277;49.824;9.562;2023-08-30T10:04:27;3.30;;;3.00;;
12425;SDS011;6277;49.824;9.562;2023-08-30T10:06:53;4.03;;;3.00;;
12425;SDS011;6277;49.824;9.562;2023-08-30T10:09:22;3.20;;;2.90;;
12425;SDS011;6277;49.824;9.562;2023-08-30T10:11:48;3.08;;;2.78;;
12425;SDS011;6277;49.824;9.562;2023-08-30T10:14:15;2.88;;;2.58;;
12425;SDS011;6277;49.824;9.562;2023-08-30T10:16:45;3.30;;;3.00;;
12425;SDS011;6277;49.824;9.562;2023-08-30T10:19:12;3.75;;;3.45;;
12425;SDS011;6277;49.824;9.562;2023-08-30T10:21:48;4.07;;;3.30;;
12425;SDS011;6277;49.824;9.562;2023-08-30T10:24:30;3.55;;;3.08;;
12425;SDS011;6277;49.824;9.562;2023-08-30T10:27:00;4.47;;;3.10;;
12425;SDS011;6277;49.824;9.562;2023-08-30T10:29:28;3.33;;;3.03;;
12425;SDS011;6277;49.824;9.562;2023-08-30T10:32:01;3.30;;;3.00;;
12425;SDS011;6277;49.824;9.562;2023-08-30T10:34:31;4.30;;;3.90;;
12425;SDS011;6277;49.824;9.562;2023-08-30T10:36:59;3.88;;;3.22;;
12425;SDS011;6277;49.824;9.562;2023-08-30T10:39:33;3.53;;;3.22;;
12425;SDS011;6277;49.824;9.562;2023-08-30T10:44:34;3.10;;;2.80;;
12425;SDS011;6277;49.824;9.562;2023-08-30T10:47:01;3.25;;;2.95;;
12425;SDS011;6277;49.824;9.562;2023-08-30T10:49:29;2.85;;;2.35;;
12425;SDS011;6277;49.824;9.562;2023-08-30T10:52:03;3.97;;;2.67;;
12425;SDS011;6277;49.824;9.562;2023-08-30T10:54:38;3.65;;;3.22;;
12425;SDS011;6277;49.824;9.562;2023-08-30T10:57:04;3.25;;;2.95;;
12425;SDS011;6277;49.824;9.562;2023-08-30T10:59:29;3.08;;;2.78;;
12425;SDS011;6277;49.824;9.562;2023-08-30T11:01:55;3.10;;;2.80;;
12425;SDS011;6277;49.824;9.562;2023-08-30T11:04:25;2.78;;;2.58;;
12425;SDS011;6277;49.824;9.562;2023-08-30T11:06:51;2.38;;;2.17;;
12425;SDS011;6277;49.824;9.562;2023-08-30T11:09:18;2.03;;;1.83;;
12425;SDS011;6277;49.824;9.562;2023-08-30T11:11:46;2.10;;;1.90;;
12425;SDS011;6277;49.824;9.562;2023-08-30T11:14:12;3.00;;;2.05;;
12425;SDS011;6277;49.824;9.562;2023-08-30T11:16:38;2.35;;;2.15;;
12425;SDS011;6277;49.824;9.562;2023-08-30T11:19:05;2.30;;;2.10;;
12425;SDS011;6277;49.824;9.562;2023-08-30T11:21:32;2.90;;;2.30;;
12425;SDS011;6277;49.824;9.562;2023-08-30T11:23:58;2.97;;;2.47;;
12425;SDS011;6277;49.824;9.562;2023-08-30T11:26:24;1.85;;;1.73;;
12425;SDS011;6277;49.824;9.562;2023-08-30T11:28:50;1.70;;;1.60;;
12425;SDS011;6277;49.824;9.562;2023-08-30T11:31:27;2.25;;;2.05;;
12425;SDS011;6277;49.824;9.562;2023-08-30T11:33:53;1.70;;;1.60;;
12425;SDS011;6277;49.824;9.562;2023-08-30T11:36:20;1.92;;;1.67;;
12425;SDS011;6277;49.824;9.562;2023-08-30T11:38:47;2.60;;;2.10;;
12425;SDS011;6277;49.824;9.562;2023-08-30T11:41:14;2.17;;;1.80;;
12425;SDS011;6277;49.824;9.562;2023-08-30T11:43:40;2.50;;;2.30;;
12425;SDS011;6277;49.824;9.562;2023-08-30T11:46:05;2.58;;;2.30;;
12425;SDS011;6277;49.824;9.562;2023-08-30T11:48:31;2.08;;;1.88;;
12425;SDS011;6277;49.824;9.562;2023-08-30T11:50:58;2.45;;;2.25;;
12425;SDS011;6277;49.824;9.562;2023-08-30T11:53:24;2.35;;;2.15;;
12425;SDS011;6277;49.824;9.562;2023-08-30T11:55:50;2.22;;;2.03;;
12425;SDS011;6277;49.824;9.562;2023-08-30T11:58:17;2.25;;;2.05;;
12425;SDS011;6277;49.824;9.562;2023-08-30T12:00:43;2.40;;;2.20;;
12425;SDS011;6277;49.824;9.562;2023-08-30T12:03:13;2.50;;;2.30;;
12425;SDS011;6277;49.824;9.562;2023-08-30T12:05:49;2.17;;;2.00;;
12425;SDS011;6277;49.824;9.562;2023-08-30T12:08:25;2.08;;;1.90;;
12425;SDS011;6277;49.824;9.562;2023-08-30T12:10:52;2.00;;;1.77;;
12425;SDS011;6277;49.824;9.562;2023-08-30T12:15:55;2.08;;;1.77;;
12425;SDS011;6277;49.824;9.562;2023-08-30T12:18:22;4.85;;;1.60;;
12425;SDS011;6277;49.824;9.562;2023-08-30T12:20:52;1.55;;;1.45;;
12425;SDS011;6277;49.824;9.562;2023-08-30T12:23:22;1.50;;;1.23;;
12425;SDS011;6277;49.824;9.562;2023-08-30T12:26:05;1.50;;;1.23;;
12425;SDS011;6277;49.824;9.562;2023-08-30T12:28:35;1.10;;;1.00;;
12425;SDS011;6277;49.824;9.562;2023-08-30T12:31:04;1.02;;;0.90;;
12425;SDS011;6277;49.824;9.562;2023-08-30T12:33:30;1.25;;;0.98;;
12425;SDS011;6277;49.824;9.562;2023-08-30T12:35:56;0.95;;;0.88;;
12425;SDS011;6277;49.824;9.562;2023-08-30T12:38:22;1.17;;;0.98;;
12425;SDS011;6277;49.824;9.562;2023-08-30T12:40:54;1.08;;;0.88;;
12425;SDS011;6277;49.824;9.562;2023-08-30T12:43:21;0.90;;;0.90;;
12425;SDS011;6277;49.824;9.562;2023-08-30T12:45:47;0.95;;;0.80;;
12425;SDS011;6277;49.824;9.562;2023-08-30T12:48:15;1.00;;;0.90;;
12425;SDS011;6277;49.824;9.562;2023-08-30T12:50:48;0.75;;;0.70;;
12425;SDS011;6277;49.824;9.562;2023-08-30T12:53:14;0.80;;;0.80;;
12425;SDS011;6277;49.824;9.562;2023-08-30T12:55:42;0.90;;;0.90;;
12425;SDS011;6277;49.824;9.562;2023-08-30T12:58:08;1.90;;;0.80;;
12425;SDS011;6277;49.824;9.562;2023-08-30T13:00:34;1.35;;;0.75;;
12425;SDS011;6277;49.824;9.562;2023-08-30T13:03:00;1.05;;;0.95;;
12425;SDS011;6277;49.824;9.562;2023-08-30T13:05:26;1.20;;;0.90;;
12425;SDS011;6277;49.824;9.562;2023-08-30T13:07:52;1.73;;;0.85;;
12425;SDS011;6277;49.824;9.562;2023-08-30T13:10:18;2.60;;;0.90;;
12425;SDS011;6277;49.824;9.562;2023-08-30T13:12:43;1.75;;;0.85;;
12425;SDS011;6277;49.824;9.562;2023-08-30T13:15:09;1.10;;;0.70;;
12425;SDS011;6277;49.824;9.562;2023-08-30T13:17:35;0.77;;;0.75;;
12425;SDS011;6277;49.824;9.562;2023-08-30T13:20:01;0.88;;;0.77;;
12425;SDS011;6277;49.824;9.562;2023-08-30T13:22:28;1.10;;;0.80;;
12425;SDS011;6277;49.824;9.562;2023-08-30T13:24:53;0.80;;;0.60;;
12425;SDS011;6277;49.824;9.562;2023-08-30T13:27:19;1.05;;;0.60;;
12425;SDS011;6277;49.824;9.562;2023-08-30T13:29:45;1.10;;;0.70;;
12425;SDS011;6277;49.824;9.562;2023-08-30T13:32:11;0.52;;;0.50;;
12425;SDS011;6277;49.824;9.562;2023-08-30T13:34:37;0.98;;;0.70;;
12425;SDS011;6277;49.824;9.562;2023-08-30T13:37:03;0.70;;;0.52;;
12425;SDS011;6277;49.824;9.562;2023-08-30T13:39:29;1.25;;;0.60;;
12425;SDS011;6277;49.824;9.562;2023-08-30T13:41:55;0.80;;;0.60;;
12425;SDS011;6277;49.824;9.562;2023-08-30T13:44:20;0.60;;;0.52;;
12425;SDS011;6277;49.824;9.562;2023-08-30T13:46:46;1.48;;;0.60;;
12425;SDS011;6277;49.824;9.562;2023-08-30T13:49:14;0.63;;;0.60;;
12425;SDS011;6277;49.824;9.562;2023-08-30T13:51:43;0.70;;;0.60;;
12425;SDS011;6277;49.824;9.562;2023-08-30T13:54:10;0.73;;;0.70;;
12425;SDS011;6277;49.824;9.562;2023-08-30T13:56:35;0.50;;;0.50;;
12425;SDS011;6277;49.824;9.562;2023-08-30T13:59:03;0.90;;;0.57;;
12425;SDS011;6277;49.824;9.562;2023-08-30T14:01:30;0.88;;;0.60;;
12425;SDS011;6277;49.824;9.562;2023-08-30T14:03:56;1.92;;;0.50;;
12425;SDS011;6277;49.824;9.562;2023-08-30T14:06:21;1.02;;;0.60;;
12425;SDS011;6277;49.824;9.562;2023-08-30T14:08:47;1.15;;;0.70;;
12425;SDS011;6277;49.824;9.562;2023-08-30T14:11:13;0.45;;;0.40;;
12425;SDS011;6277;49.824;9.562;2023-08-30T14:13:39;0.88;;;0.60;;
12425;SDS011;6277;49.824;9.562;2023-08-30T14:16:04;0.88;;;0.63;;
12425;SDS011;6277;49.824;9.562;2023-08-30T14:18:30;0.60;;;0.50;;
12425;SDS011;6277;49.824;9.562;2023-08-30T14:20:57;0.47;;;0.45;;
12425;SDS011;6277;49.824;9.562;2023-08-30T14:23:24;1.08;;;0.88;;
12425;SDS011;6277;49.824;9.562;2023-08-30T14:25:59;0.90;;;0.70;;
12425;SDS011;6277;49.824;9.562;2023-08-30T14:28:41;0.60;;;0.60;;
12425;SDS011;6277;49.824;9.562;2023-08-30T14:31:07;0.80;;;0.50;;
12425;SDS011;6277;49.824;9.562;2023-08-30T14:33:33;0.88;;;0.82;;
12425;SDS011;6277;49.824;9.562;2023-08-30T14:35:59;0.75;;;0.57;;
12425;SDS011;6277;49.824;9.562;2023-08-30T14:38:27;0.52;;;0.50;;
12425;SDS011;6277;49.824;9.562;2023-08-30T14:40:56;0.90;;;0.80;;
12425;SDS011;6277;49.824;9.562;2023-08-30T14:43:23;0.80;;;0.70;;
12425;SDS011;6277;49.824;9.562;2023-08-30T14:45:48;0.95;;;0.80;;
12425;SDS011;6277;49.824;9.562;2023-08-30T14:48:14;1.10;;;0.85;;
12425;SDS011;6277;49.824;9.562;2023-08-30T14:50:39;1.58;;;0.50;;
12425;SDS011;6277;49.824;9.562;2023-08-30T14:53:05;1.73;;;0.60;;
12425;SDS011;6277;49.824;9.562;2023-08-30T14:55:31;0.73;;;0.60;;
12425;SDS011;6277;49.824;9.562;2023-08-30T14:57:57;0.60;;;0.60;;
12425;SDS011;6277;49.824;9.562;2023-08-30T15:00:23;0.93;;;0.60;;
12425;SDS011;6277;49.824;9.562;2023-08-30T15:02:49;1.25;;;0.80;;
12425;SDS011;6277;49.824;9.562;2023-08-30T15:05:14;1.25;;;0.90;;
12425;SDS011;6277;49.824;9.562;2023-08-30T15:07:40;1.10;;;0.95;;
12425;SDS011;6277;49.824;9.562;2023-08-30T15:10:06;0.90;;;0.70;;